createdAt,value
2018-09-18T00:00:43.314Z,7.10
2018-09-18T00:03:12.227Z,6.17
2018-09-18T00:05:41.106Z,6.33
2018-09-18T00:08:10.019Z,6.83
2018-09-18T00:10:38.897Z,6.33
2018-09-18T00:13:07.807Z,9.23
2018-09-18T00:15:36.684Z,7.08
2018-09-18T00:18:05.591Z,6.75
2018-09-18T00:20:34.462Z,7.75
2018-09-18T00:23:03.439Z,6.65
2018-09-18T00:25:32.335Z,6.20
2018-09-18T00:28:01.233Z,6.37
2018-09-18T00:30:30.110Z,5.65
2018-09-18T00:32:59.211Z,6.47
2018-09-18T00:35:28.103Z,7.70
2018-09-18T00:37:56.987Z,6.28
2018-09-18T00:40:25.863Z,8.05
2018-09-18T00:42:54.761Z,6.10
2018-09-18T00:45:23.654Z,6.55
2018-09-18T00:47:52.638Z,6.55
2018-09-18T00:50:21.558Z,6.92
2018-09-18T00:52:50.454Z,7.45
2018-09-18T00:55:19.346Z,7.42
2018-09-18T00:57:48.291Z,6.72
2018-09-18T01:00:17.190Z,9.40
2018-09-18T01:02:46.155Z,6.00
2018-09-18T01:05:15.094Z,6.30
2018-09-18T01:07:44.026Z,6.37
2018-09-18T01:10:12.898Z,6.40
2018-09-18T01:12:41.786Z,8.15
2018-09-18T01:15:10.703Z,7.33
2018-09-18T01:17:39.586Z,7.83
2018-09-18T01:20:08.526Z,6.85
2018-09-18T01:22:37.411Z,6.45
2018-09-18T01:25:06.313Z,7.40
2018-09-18T01:27:35.202Z,7.60
2018-09-18T01:30:04.144Z,6.03
2018-09-18T01:32:33.031Z,6.22
2018-09-18T01:35:01.897Z,7.75
2018-09-18T01:37:30.773Z,7.33
2018-09-18T01:39:59.659Z,6.42
2018-09-18T01:42:28.537Z,6.60
2018-09-18T01:44:57.441Z,7.62
2018-09-18T01:47:26.326Z,7.67
2018-09-18T01:49:55.418Z,7.00
2018-09-18T01:52:24.434Z,6.60
2018-09-18T01:54:53.506Z,7.05
2018-09-18T01:57:22.558Z,6.97
2018-09-18T01:59:52.258Z,6.62
2018-09-18T02:02:21.290Z,7.95
2018-09-18T02:04:50.198Z,7.33
2018-09-18T02:07:19.099Z,7.33
2018-09-18T02:09:47.983Z,8.18
2018-09-18T02:12:16.877Z,6.95
2018-09-18T02:14:45.737Z,6.72
2018-09-18T02:17:14.706Z,8.08
2018-09-18T02:19:43.793Z,7.20
2018-09-18T02:22:12.683Z,7.00
2018-09-18T02:24:41.554Z,7.20
2018-09-18T02:27:10.427Z,8.68
2018-09-18T02:29:39.287Z,9.88
2018-09-18T02:32:08.190Z,7.65
2018-09-18T02:34:37.038Z,8.20
2018-09-18T02:37:05.943Z,8.10
2018-09-18T02:39:34.826Z,7.30
2018-09-18T02:42:03.706Z,7.30
2018-09-18T02:44:32.584Z,6.95
2018-09-18T02:47:01.525Z,7.62
2018-09-18T02:49:30.386Z,7.35
2018-09-18T02:51:59.307Z,7.12
2018-09-18T02:54:28.194Z,7.80
2018-09-18T02:56:57.070Z,7.42
2018-09-18T02:59:25.982Z,10.48
2018-09-18T03:01:54.899Z,6.40
2018-09-18T03:04:23.818Z,7.83
2018-09-18T03:06:52.722Z,7.10
2018-09-18T03:09:21.649Z,6.83
2018-09-18T03:11:50.755Z,8.70
2018-09-18T03:14:19.636Z,8.70
2018-09-18T03:16:48.542Z,7.15
2018-09-18T03:19:17.431Z,7.58
2018-09-18T03:21:46.327Z,7.47
2018-09-18T03:24:15.190Z,8.03
2018-09-18T03:26:44.166Z,8.15
2018-09-18T03:29:13.049Z,8.60
2018-09-18T03:31:42.111Z,7.83
2018-09-18T03:34:11.039Z,7.67
2018-09-18T03:36:39.955Z,7.10
2018-09-18T03:39:09.142Z,6.67
2018-09-18T03:41:38.118Z,6.97
2018-09-18T03:44:07.008Z,8.38
2018-09-18T03:46:35.963Z,7.70
2018-09-18T03:49:05.048Z,7.35
2018-09-18T03:51:33.975Z,6.45
2018-09-18T03:54:02.862Z,9.68
2018-09-18T03:56:31.750Z,7.55
2018-09-18T03:59:00.630Z,8.65
2018-09-18T04:01:29.523Z,7.85
2018-09-18T04:03:58.434Z,8.03
2018-09-18T04:06:27.298Z,6.87
2018-09-18T04:08:56.234Z,7.03
2018-09-18T04:11:25.109Z,8.05
2018-09-18T04:13:54.039Z,6.97
2018-09-18T04:16:22.910Z,8.30
2018-09-18T04:18:51.833Z,7.92
2018-09-18T04:21:20.724Z,8.40
2018-09-18T04:23:49.634Z,6.90
2018-09-18T04:26:18.526Z,8.98
2018-09-18T04:28:47.412Z,11.45
2018-09-18T04:31:16.280Z,11.40
2018-09-18T04:33:45.162Z,8.23
2018-09-18T04:36:14.042Z,7.47
2018-09-18T04:38:42.923Z,7.08
2018-09-18T04:41:11.802Z,7.50
2018-09-18T04:43:40.678Z,7.80
2018-09-18T04:46:09.746Z,8.03
2018-09-18T04:48:38.878Z,8.23
2018-09-18T04:51:07.885Z,7.37
2018-09-18T04:53:36.774Z,8.53
2018-09-18T04:56:05.662Z,8.45
2018-09-18T04:58:34.530Z,9.20
2018-09-18T05:01:03.579Z,10.35
2018-09-18T05:03:32.702Z,8.85
2018-09-18T05:06:02.002Z,6.75
2018-09-18T05:08:31.042Z,8.75
2018-09-18T05:10:59.910Z,8.93
2018-09-18T05:13:28.787Z,6.90
2018-09-18T05:15:58.685Z,6.92
2018-09-18T05:18:27.570Z,8.17
2018-09-18T05:20:56.443Z,7.58
2018-09-18T05:23:25.358Z,10.35
2018-09-18T05:25:54.301Z,12.20
2018-09-18T05:28:23.386Z,12.25
2018-09-18T05:30:52.295Z,12.10
2018-09-18T05:33:21.190Z,9.98
2018-09-18T05:35:50.074Z,13.50
2018-09-18T05:38:19.029Z,12.30
2018-09-18T05:40:47.898Z,9.50
2018-09-18T05:43:17.017Z,11.28
2018-09-18T05:45:45.950Z,11.83
2018-09-18T05:48:14.904Z,9.95
2018-09-18T05:50:43.807Z,12.15
2018-09-18T05:53:13.090Z,19.40
2018-09-18T05:55:42.245Z,21.05
2018-09-18T05:58:11.131Z,24.20
2018-09-18T06:00:40.020Z,20.43
2018-09-18T06:03:08.903Z,24.32
2018-09-18T06:05:37.803Z,30.68
2018-09-18T06:08:06.699Z,19.32
2018-09-18T06:10:35.554Z,27.35
2018-09-18T06:13:04.471Z,23.65
2018-09-18T06:15:33.342Z,27.52
2018-09-18T06:18:02.227Z,18.80
2018-09-18T06:20:31.102Z,17.80
2018-09-18T06:22:59.995Z,12.40
2018-09-18T06:25:28.858Z,22.20
2018-09-18T06:27:57.746Z,25.77
2018-09-18T06:30:26.618Z,15.93
2018-09-18T06:32:55.550Z,17.10
2018-09-18T06:35:24.453Z,15.50
2018-09-18T06:37:53.354Z,22.25
2018-09-18T06:40:22.296Z,14.65
2018-09-18T06:42:51.211Z,11.15
2018-09-18T06:45:20.118Z,10.70
2018-09-18T06:47:49.043Z,12.58
2018-09-18T06:50:17.999Z,16.40
2018-09-18T06:52:46.893Z,12.95
2018-09-18T06:55:15.766Z,9.85
2018-09-18T06:57:44.678Z,10.63
2018-09-18T07:00:13.566Z,13.78
2018-09-18T07:02:42.462Z,11.35
2018-09-18T07:05:11.394Z,13.40
2018-09-18T07:07:40.278Z,16.12
2018-09-18T07:10:09.170Z,16.37
2018-09-18T07:12:38.051Z,13.35
2018-09-18T07:15:07.083Z,12.15
2018-09-18T07:17:35.969Z,15.78
2018-09-18T07:20:04.997Z,11.63
2018-09-18T07:22:33.879Z,10.45
2018-09-18T07:25:02.756Z,11.95
2018-09-18T07:27:31.636Z,10.13
2018-09-18T07:30:00.527Z,10.82
2018-09-18T07:32:29.442Z,15.55
2018-09-18T07:34:58.321Z,16.87
2018-09-18T07:37:27.255Z,10.00
2018-09-18T07:39:56.198Z,12.47
2018-09-18T07:42:25.106Z,10.53
2018-09-18T07:44:54.071Z,10.18
2018-09-18T07:47:22.990Z,13.55
2018-09-18T07:49:51.897Z,11.90
2018-09-18T07:52:20.862Z,11.30
2018-09-18T07:54:49.708Z,12.80
2018-09-18T07:57:18.598Z,10.10
2018-09-18T07:59:47.498Z,11.40
2018-09-18T08:02:16.375Z,12.18
2018-09-18T08:04:45.250Z,11.90
2018-09-18T08:07:14.159Z,15.87
2018-09-18T08:09:43.046Z,11.80
2018-09-18T08:12:12.108Z,12.70
2018-09-18T08:14:41.016Z,11.00
2018-09-18T08:17:09.879Z,11.43
2018-09-18T08:19:38.955Z,10.50
2018-09-18T08:22:07.721Z,10.53
2018-09-18T08:24:36.666Z,11.97
2018-09-18T08:27:05.683Z,10.77
2018-09-18T08:29:34.610Z,10.60
2018-09-18T08:32:03.482Z,12.67
2018-09-18T08:34:32.358Z,10.73
2018-09-18T08:37:01.239Z,11.30
2018-09-18T08:39:30.129Z,10.17
2018-09-18T08:41:59.009Z,12.60
2018-09-18T08:44:27.895Z,10.10
2018-09-18T08:46:56.761Z,12.20
2018-09-18T08:49:25.646Z,11.13
2018-09-18T08:51:54.557Z,8.80
2018-09-18T08:54:23.451Z,12.43
2018-09-18T08:56:52.346Z,9.47
2018-09-18T08:59:21.258Z,9.73
2018-09-18T09:01:50.180Z,10.17
2018-09-18T09:04:19.074Z,10.47
2018-09-18T09:06:47.962Z,9.53
2018-09-18T09:09:16.927Z,11.80
2018-09-18T09:11:46.026Z,10.23
2018-09-18T09:14:15.019Z,9.57
2018-09-18T09:16:43.882Z,9.50
2018-09-18T09:19:12.763Z,9.50
2018-09-18T09:21:41.642Z,12.70
2018-09-18T09:24:10.497Z,8.43
2018-09-18T09:26:39.448Z,10.20
2018-09-18T09:29:08.240Z,9.90
2018-09-18T09:31:37.094Z,7.70
2018-09-18T09:34:05.955Z,10.83
2018-09-18T09:36:34.883Z,7.23
2018-09-18T09:39:05.495Z,7.80
2018-09-18T09:41:34.375Z,7.00
2018-09-18T09:44:03.554Z,9.60
2018-09-18T09:46:32.423Z,7.33
2018-09-18T09:49:01.286Z,6.43
2018-09-18T09:51:30.162Z,7.77
2018-09-18T09:53:59.022Z,6.40
2018-09-18T09:56:28.186Z,5.23
2018-09-18T09:58:57.163Z,4.83
2018-09-18T10:01:31.422Z,6.50
2018-09-18T10:04:00.292Z,6.37
2018-09-18T10:06:29.151Z,5.57
2018-09-18T10:08:58.119Z,7.13
2018-09-18T10:11:26.975Z,7.43
2018-09-18T10:13:55.927Z,6.87
2018-09-18T10:16:24.851Z,6.93
2018-09-18T10:18:53.776Z,6.97
2018-09-18T10:21:22.674Z,10.00
2018-09-18T10:23:51.567Z,6.70
2018-09-18T10:26:20.500Z,7.60
2018-09-18T10:28:49.407Z,6.10
2018-09-18T10:31:18.370Z,7.57
2018-09-18T10:33:47.274Z,7.33
2018-09-18T10:36:16.171Z,6.40
2018-09-18T10:38:45.023Z,8.23
2018-09-18T10:41:14.082Z,6.33
2018-09-18T10:43:42.869Z,8.83
2018-09-18T10:46:11.730Z,7.30
2018-09-18T10:48:45.843Z,6.73
2018-09-18T10:51:14.698Z,5.47
2018-09-18T10:53:43.571Z,6.20
2018-09-18T10:56:12.514Z,5.13
2018-09-18T10:58:41.408Z,5.63
2018-09-18T11:01:10.434Z,5.63
2018-09-18T11:03:39.332Z,5.50
2018-09-18T11:06:08.432Z,6.07
2018-09-18T11:08:37.580Z,6.17
2018-09-18T11:11:06.860Z,6.17
2018-09-18T11:13:35.732Z,6.67
2018-09-18T11:16:04.647Z,6.00
2018-09-18T11:18:33.519Z,6.90
2018-09-18T11:21:02.334Z,5.70
2018-09-18T11:23:31.226Z,5.47
2018-09-18T11:26:00.095Z,5.37
2018-09-18T11:28:28.958Z,5.30
2018-09-18T11:30:57.863Z,5.83
2018-09-18T11:33:26.727Z,6.60
2018-09-18T11:35:55.614Z,5.40
2018-09-18T11:38:24.550Z,5.10
2018-09-18T11:40:53.476Z,5.20
2018-09-18T11:43:22.398Z,5.10
2018-09-18T11:45:51.463Z,4.50
2018-09-18T11:48:20.283Z,4.97
2018-09-18T11:50:49.194Z,4.37
2018-09-18T11:53:18.095Z,4.10
2018-09-18T11:55:46.999Z,4.37
2018-09-18T11:58:15.916Z,6.30
2018-09-18T12:00:44.831Z,4.37
2018-09-18T12:03:13.892Z,6.30
2018-09-18T12:05:42.746Z,4.03
2018-09-18T12:08:11.631Z,3.90
2018-09-18T12:10:40.515Z,4.43
2018-09-18T12:13:09.373Z,4.60
2018-09-18T12:15:38.265Z,6.30
2018-09-18T12:18:07.225Z,4.47
2018-09-18T12:20:36.138Z,4.40
2018-09-18T12:23:05.005Z,4.63
2018-09-18T12:25:33.919Z,4.40
2018-09-18T12:28:02.823Z,5.43
2018-09-18T12:30:31.748Z,3.37
2018-09-18T12:33:00.615Z,4.33
2018-09-18T12:35:29.629Z,5.07
2018-09-18T12:37:58.371Z,3.60
2018-09-18T12:40:27.260Z,5.13
2018-09-18T12:42:56.117Z,5.07
2018-09-18T12:45:25.126Z,7.03
2018-09-18T12:47:54.031Z,3.30
2018-09-18T12:50:23.201Z,3.63
2018-09-18T12:52:51.771Z,3.33
2018-09-18T12:55:20.682Z,3.90
2018-09-18T12:57:49.619Z,4.60
2018-09-18T13:00:18.647Z,4.03
2018-09-18T13:02:47.465Z,3.67
2018-09-18T13:05:16.340Z,7.20
2018-09-18T13:07:45.198Z,3.57
2018-09-18T13:10:14.086Z,3.50
2018-09-18T13:12:42.991Z,5.40
2018-09-18T13:15:11.802Z,4.70
2018-09-18T13:17:40.676Z,3.80
2018-09-18T13:20:09.551Z,3.37
2018-09-18T13:22:38.439Z,3.40
2018-09-18T13:25:07.524Z,3.80
2018-09-18T13:27:36.467Z,3.43
2018-09-18T13:30:06.128Z,3.40
2018-09-18T13:32:35.052Z,4.50
2018-09-18T13:35:03.924Z,6.33
2018-09-18T13:37:32.781Z,3.33
2018-09-18T13:40:01.667Z,3.67
2018-09-18T13:42:37.008Z,3.60
2018-09-18T13:45:05.889Z,4.80
2018-09-18T13:47:34.795Z,7.80
2018-09-18T13:50:03.711Z,4.30
2018-09-18T13:52:32.608Z,3.20
2018-09-18T13:55:01.854Z,4.40
2018-09-18T13:57:30.874Z,7.40
2018-09-18T13:59:59.707Z,4.13
2018-09-18T14:02:28.646Z,14.23
2018-09-18T14:04:57.586Z,3.20
2018-09-18T14:07:26.398Z,4.83
2018-09-18T14:09:55.326Z,2.87
2018-09-18T14:12:24.238Z,4.53
2018-09-18T14:14:53.512Z,4.00
2018-09-18T14:17:22.363Z,3.37
2018-09-18T14:19:51.264Z,5.30
2018-09-18T14:22:20.185Z,3.17
2018-09-18T14:24:49.100Z,7.83
2018-09-18T14:27:18.346Z,2.80
2018-09-18T14:29:47.238Z,2.83
2018-09-18T14:32:16.155Z,3.30
2018-09-18T14:34:44.963Z,3.27
2018-09-18T14:37:13.814Z,3.07
2018-09-18T14:39:42.662Z,2.90
2018-09-18T14:42:11.563Z,2.80
2018-09-18T14:44:40.432Z,3.07
2018-09-18T14:47:09.340Z,4.87
2018-09-18T14:49:47.787Z,7.80
2018-09-18T14:52:17.362Z,4.90
2018-09-18T14:54:46.223Z,3.37
2018-09-18T14:57:15.088Z,2.37
2018-09-18T14:59:43.978Z,4.13
2018-09-18T15:02:12.843Z,6.40
2018-09-18T15:04:41.750Z,3.40
2018-09-18T15:07:10.591Z,5.40
2018-09-18T15:09:39.426Z,2.60
2018-09-18T15:12:08.303Z,2.60
2018-09-18T15:14:37.271Z,2.70
2018-09-18T15:17:06.094Z,2.80
2018-09-18T15:19:34.946Z,3.40
2018-09-18T15:22:04.919Z,2.60
2018-09-18T15:24:33.738Z,2.80
2018-09-18T15:27:02.659Z,3.77
2018-09-18T15:29:31.522Z,2.53
2018-09-18T15:32:00.433Z,4.87
2018-09-18T15:34:29.273Z,5.50
2018-09-18T15:36:58.166Z,2.87
2018-09-18T15:39:27.046Z,2.73
2018-09-18T15:41:55.935Z,5.97
2018-09-18T15:44:24.824Z,4.77
2018-09-18T15:46:53.779Z,4.03
2018-09-18T15:49:22.678Z,2.43
2018-09-18T15:51:51.642Z,3.70
2018-09-18T15:54:20.559Z,2.17
2018-09-18T15:56:49.462Z,3.10
2018-09-18T15:59:18.338Z,2.17
2018-09-18T16:01:47.248Z,2.90
2018-09-18T16:04:16.142Z,3.43
2018-09-18T16:06:45.115Z,4.33
2018-09-18T16:09:14.018Z,2.10
2018-09-18T16:11:42.995Z,4.13
2018-09-18T16:14:11.850Z,2.00
2018-09-18T16:16:40.832Z,2.70
2018-09-18T16:19:09.712Z,3.90
2018-09-18T16:21:38.541Z,2.40
2018-09-18T16:24:07.450Z,2.63
2018-09-18T16:26:36.416Z,3.37
2018-09-18T16:29:05.299Z,2.43
2018-09-18T16:31:34.221Z,2.40
2018-09-18T16:34:03.077Z,3.80
2018-09-18T16:36:31.942Z,2.10
2018-09-18T16:39:00.865Z,3.90
2018-09-18T16:41:29.754Z,2.33
2018-09-18T16:43:58.616Z,2.40
2018-09-18T16:46:27.554Z,3.67
2018-09-18T16:48:56.395Z,2.37
2018-09-18T16:51:25.281Z,2.43
2018-09-18T16:53:54.155Z,3.40
2018-09-18T16:56:23.030Z,2.60
2018-09-18T16:58:51.939Z,3.00
2018-09-18T17:01:20.858Z,5.80
2018-09-18T17:03:49.748Z,3.90
2018-09-18T17:06:18.682Z,6.83
2018-09-18T17:08:47.654Z,3.13
2018-09-18T17:11:16.517Z,4.13
2018-09-18T17:13:45.380Z,3.50
2018-09-18T17:16:14.246Z,4.73
2018-09-18T17:18:43.130Z,3.30
2018-09-18T17:21:12.009Z,4.00
2018-09-18T17:23:40.866Z,3.50
2018-09-18T17:26:09.738Z,4.00
2018-09-18T17:28:38.897Z,5.00
2018-09-18T17:31:07.932Z,3.30
2018-09-18T17:33:36.978Z,4.63
2018-09-18T17:36:05.942Z,4.23
2018-09-18T17:38:34.842Z,3.70
2018-09-18T17:41:03.724Z,4.60
2018-09-18T17:43:32.603Z,3.20
2018-09-18T17:46:02.447Z,3.40
2018-09-18T17:48:31.435Z,5.50
2018-09-18T17:51:00.417Z,7.63
2018-09-18T17:53:29.397Z,3.30
2018-09-18T17:55:58.186Z,5.00
2018-09-18T17:58:27.060Z,3.77
2018-09-18T18:00:56.011Z,5.10
2018-09-18T18:03:24.950Z,7.03
2018-09-18T18:05:53.870Z,4.13
2018-09-18T18:08:22.821Z,6.60
2018-09-18T18:10:51.714Z,7.20
2018-09-18T18:13:20.569Z,7.83
2018-09-18T18:15:49.448Z,7.13
2018-09-18T18:18:18.306Z,8.30
2018-09-18T18:20:47.202Z,4.73
2018-09-18T18:23:16.034Z,5.83
2018-09-18T18:25:44.931Z,7.27
2018-09-18T18:28:13.862Z,4.43
2018-09-18T18:30:42.730Z,6.70
2018-09-18T18:33:11.605Z,4.40
2018-09-18T18:35:40.547Z,4.17
2018-09-18T18:38:09.342Z,6.20
2018-09-18T18:40:38.267Z,3.30
2018-09-18T18:43:07.139Z,5.30
2018-09-18T18:45:36.418Z,4.67
2018-09-18T18:48:05.524Z,6.60
2018-09-18T18:50:34.207Z,4.50
2018-09-18T18:53:03.122Z,6.47
2018-09-18T18:55:32.028Z,8.00
2018-09-18T18:58:00.923Z,12.40
2018-09-18T19:00:29.845Z,6.77
2018-09-18T19:02:58.723Z,5.90
2018-09-18T19:05:27.598Z,8.63
2018-09-18T19:07:56.591Z,10.57
2018-09-18T19:10:25.570Z,4.40
2018-09-18T19:12:54.474Z,6.17
2018-09-18T19:15:23.373Z,4.20
2018-09-18T19:17:52.233Z,7.93
2018-09-18T19:20:21.167Z,4.43
2018-09-18T19:22:50.078Z,5.23
2018-09-18T19:25:18.965Z,5.25
2018-09-18T19:27:47.857Z,5.17
2018-09-18T19:30:16.729Z,12.13
2018-09-18T19:32:45.830Z,5.93
2018-09-18T19:35:14.690Z,6.13
2018-09-18T19:37:43.566Z,6.42
2018-09-18T19:40:12.444Z,6.50
2018-09-18T19:42:41.337Z,4.35
2018-09-18T19:45:10.199Z,5.00
2018-09-18T19:47:39.083Z,3.50
2018-09-18T19:50:12.175Z,4.60
2018-09-18T19:52:41.055Z,4.60
2018-09-18T19:55:09.923Z,5.20
2018-09-18T19:57:38.824Z,6.93
2018-09-18T20:00:08.462Z,4.40
2018-09-18T20:02:37.363Z,4.73
2018-09-18T20:05:06.258Z,4.07
2018-09-18T20:07:35.124Z,4.00
2018-09-18T20:10:04.962Z,8.10
2018-09-18T20:12:33.898Z,4.20
2018-09-18T20:15:02.983Z,4.43
2018-09-18T20:17:31.726Z,4.90
2018-09-18T20:20:00.591Z,5.87
2018-09-18T20:22:29.486Z,5.30
2018-09-18T20:24:58.466Z,4.70
2018-09-18T20:27:27.356Z,5.00
2018-09-18T20:29:56.234Z,4.75
2018-09-18T20:32:25.198Z,5.10
2018-09-18T20:34:54.080Z,4.53
2018-09-18T20:37:22.969Z,5.25
2018-09-18T20:39:51.835Z,5.22
2018-09-18T20:42:20.706Z,4.53
2018-09-18T20:44:49.582Z,5.37
2018-09-18T20:47:18.574Z,6.50
2018-09-18T20:49:47.438Z,4.50
2018-09-18T20:52:16.379Z,4.67
2018-09-18T20:54:45.249Z,5.75
2018-09-18T20:57:14.113Z,5.12
2018-09-18T20:59:43.002Z,5.50
2018-09-18T21:02:12.000Z,3.95
2018-09-18T21:04:40.780Z,4.83
2018-09-18T21:07:09.774Z,4.97
2018-09-18T21:09:38.637Z,4.67
2018-09-18T21:12:07.593Z,5.08
2018-09-18T21:14:36.463Z,5.15
2018-09-18T21:17:05.397Z,4.30
2018-09-18T21:19:34.273Z,5.70
2018-09-18T21:22:03.916Z,5.25
2018-09-18T21:24:32.786Z,5.12
2018-09-18T21:27:01.680Z,5.80
2018-09-18T21:29:30.629Z,4.58
2018-09-18T21:31:59.514Z,5.72
2018-09-18T21:34:28.424Z,4.70
2018-09-18T21:36:57.318Z,4.30
2018-09-18T21:39:26.198Z,5.60
2018-09-18T21:41:55.099Z,6.10
2018-09-18T21:44:23.984Z,5.10
2018-09-18T21:46:52.867Z,4.35
2018-09-18T21:49:21.746Z,5.45
2018-09-18T21:51:50.639Z,4.70
2018-09-18T21:54:19.541Z,4.10
2018-09-18T21:56:48.444Z,5.28
2018-09-18T21:59:17.346Z,6.50
2018-09-18T22:01:46.215Z,7.25
2018-09-18T22:04:15.083Z,5.53
2018-09-18T22:06:43.969Z,8.85
2018-09-18T22:09:12.825Z,5.65
2018-09-18T22:11:41.702Z,4.65
2018-09-18T22:14:10.684Z,4.72
2018-09-18T22:16:39.575Z,6.97
2018-09-18T22:19:08.463Z,7.80
2018-09-18T22:21:37.339Z,4.83
2018-09-18T22:24:06.278Z,8.90
2018-09-18T22:26:35.158Z,6.47
2018-09-18T22:29:04.046Z,5.15
2018-09-18T22:31:32.922Z,5.12
2018-09-18T22:34:01.829Z,6.30
2018-09-18T22:36:30.697Z,5.40
2018-09-18T22:38:59.561Z,5.95
2018-09-18T22:41:28.451Z,4.92
2018-09-18T22:43:57.307Z,6.83
2018-09-18T22:46:26.209Z,6.12
2018-09-18T22:48:55.131Z,5.75
2018-09-18T22:51:24.026Z,7.87
2018-09-18T22:53:52.901Z,6.25
2018-09-18T22:56:21.774Z,5.17
2018-09-18T22:58:50.667Z,6.75
2018-09-18T23:01:19.539Z,16.67
2018-09-18T23:03:48.424Z,6.72
2018-09-18T23:06:17.294Z,6.50
2018-09-18T23:08:46.150Z,5.47
2018-09-18T23:11:15.035Z,5.25
2018-09-18T23:13:43.978Z,14.47
2018-09-18T23:16:12.846Z,7.72
2018-09-18T23:18:41.766Z,7.03
2018-09-18T23:21:10.658Z,10.40
2018-09-18T23:23:39.538Z,6.83
2018-09-18T23:26:08.397Z,6.60
2018-09-18T23:28:37.286Z,7.95
2018-09-18T23:31:06.162Z,6.58
2018-09-18T23:33:35.095Z,10.08
2018-09-18T23:36:03.983Z,8.53
2018-09-18T23:38:32.858Z,6.15
2018-09-18T23:41:01.807Z,5.97
2018-09-18T23:43:30.706Z,6.95
2018-09-18T23:45:59.606Z,7.10
2018-09-18T23:48:28.519Z,7.60
2018-09-18T23:50:57.398Z,6.12
2018-09-18T23:53:26.307Z,6.67
2018-09-18T23:55:55.200Z,5.75
2018-09-18T23:58:24.104Z,5.70
